McLeod, TX (75565)

6:13 AM CDT on November 01, 2014 (GMT -0500)
Rambo Community | Change Station
CLOSE
Current Station
Personal Weather Station
Location: Bivins, TX
Elevation: 272 ft
Nearby Weather Stations
Active Advisory: Freeze Warning

Elev 272 ft 32.90 °N, 94.10 °W | Updated 3 minutes ago

Clear
Clear
31.6 °F
Feels Like 32 °F
N
0.0
Wind Variable Wind from South
Gusts 1.0 mph

Today
High -- | Low -- °F
--% Chance of Precip.
Yesterday
High -- | Low -- °F
Precip. -- in
7:34 AM 6:25 PM
Waxing Gibbous, 65% visible
Pressure 30.42 in
Visibility 10.0 miles
Clouds Clear
Windchill 32 °F
Dew Point 30 °F
Humidity 94%
Rainfall 0.00 in
Snow Depth Not available.
UV 0 out of 12
Pollen 2.70 out of 12
Air Quality Not available.
Flu Activity Not available.
METAR KASL 011055Z AUTO 05003KT 10SM CLR 06/M02 A3042 RMK AO1 T00621020

More Conditions Fewer Conditions

Pressure 30.42 in
Visibility 10.0 miles
Clouds Clear
Windchill 32 °F
Dew Point 30 °F
Humidity 94%
Rainfall 0.00 in
Snow Depth Not available.
UV 0 out of 12
Pollen 2.70 out of 12
Air Quality Not available.
Flu Activity Not available.
METAR KASL 011055Z AUTO 05003KT 10SM CLR 06/M02 A3042 RMK AO1 T00621020

More Conditions Fewer Conditions

10-Day Weather Forecast

Almanac

Astronomy

Nov. 01, 2014 Rise Set
Actual Time
Civil Twilight
Nautical Twilight
Astronomical Twilight
Moon
Length of Visible Light
Length of Day
Tomorrow will be .
, % of the Moon is Illuminated

Today's Extremes

State Highs State Lows

Community

WunderPhotos

Upload Photos

1,766,878 photos uploaded!

WunderBlogs® & News

Nearby

Air Quality

  Air Quality AQ Index Pollutant
Not available.

Snow Depth

Station Depth Elevation

Earthquake Activity

City Distance Mag. Time & Date
Minimum magnitude displayed is 2.5.

Coastal Water Temperatures

Place Temperature

Nearby Weather Stations